Overview Statistics Trail Chart Weather Telemetry Raw packets
 

This is the latest recevied weather packets stored in our database for station/object M0HPP-13. If no packets are shown the sender has not sent any weather packets the latest 10 day(s).

<< 11 12 13 14 15 16 17 >>
Time Temp. Humidity Pressure Rain* Wind** Luminosity Snow
1788451686 16.11° C 71% 1003.9 hPa 0 mm - 138 W/m² -
1788451086 16.11° C 70% 1003.9 hPa 0 mm - 136 W/m² -
1788450486 16.67° C 69% 1003.9 hPa 0 mm - 141 W/m² -
1788449886 17.22° C 64% 1003.9 hPa 0 mm - 182 W/m² -
1788449286 17.78° C 63% 1003.9 hPa 0 mm - 263 W/m² -
1788448686 17.78° C 64% 1004 hPa 0 mm - 286 W/m² -
1788448086 17.78° C 64% 1004.3 hPa 0 mm - 280 W/m² -
1788447486 17.22° C 65% 1004.6 hPa 0 mm - 256 W/m² -
1788446886 17.22° C 65% 1004.5 hPa 0 mm - 274 W/m² -
1788446286 17.78° C 63% 1004.6 hPa 0 mm - 242 W/m² -
1788444486 17.78° C 64% 1004.7 hPa 0 mm - 370 W/m² -
1788443886 17.78° C 67% 1004.8 hPa 0 mm - 461 W/m² -
1788443286 17.22° C 67% 1004.9 hPa 0 mm - 384 W/m² -
1788442686 17.78° C 67% 1005 hPa 0 mm - 276 W/m² -
1788442086 17.78° C 68% 1004.9 hPa 0 mm - 408 W/m² -
1788441486 17.78° C 67% 1005.1 hPa 0 mm - 296 W/m² -
1788440886 17.22° C 68% 1005.2 hPa 0 mm - 349 W/m² -
1788440286 17.78° C 65% 1005.2 hPa 0 mm - 315 W/m² -
1788439686 18.33° C 62% 1005.2 hPa 0 mm - 511 W/m² -
1788439086 18.89° C 60% 1005.1 hPa 0 mm - 462 W/m² -
1788438486 18.33° C 63% 1005 hPa 0 mm - 436 W/m² -
1788437886 18.33° C 62% 1004.9 hPa 0 mm - 275 W/m² -
1788437286 17.78° C 65% 1005 hPa 0 mm - 453 W/m² -
1788436686 16.11° C 71% 1004.9 hPa 0 mm - 275 W/m² -
1788436086 16.11° C 74% 1005.1 hPa 0 mm - 143 W/m² -

* Rain latest hour (hover to see other rain measurements)
** Current wind speed in m/s (hover to see current wind gust speed)